Date,TemperatureHighF,TemperatureAvgF,TemperatureLowF,DewpointHighF,DewpointAvgF,DewpointLowF,HumidityHigh,HumidityAvg,HumidityLow,PressureMaxIn,PressureMinIn,WindSpeedMaxMPH,WindSpeedAvgMPH,GustSpeedMaxMPH,PrecipitationSumIn
2013-1-1,54,42,32,40,36,31,96,83,56,30.28,30.22,2,0,5,0.00
2013-1-2,60,40,29,40,33,27,96,81,39,30.25,30.13,2,0,2,0.00
2013-1-3,60,40,29,42,34,28,97,84,39,30.27,30.17,1,0,3,0.01
2013-1-4,61,43,33,42,36,32,97,81,41,30.30,30.18,1,0,3,0.00
2013-1-5,57,46,34,48,43,33,96,89,71,30.27,30.07,2,0,4,0.08
2013-1-6,50,45,37,46,43,36,96,93,82,30.20,30.05,3,0,10,0.10
2013-1-7,61,46,35,50,42,34,97,88,64,30.27,30.16,1,0,2,0.00
2013-1-8,64,48,39,52,43,38,97,85,54,30.24,30.13,1,0,3,0.00
2013-1-9,57,45,39,50,42,38,97,90,74,30.15,30.01,5,0,9,0.01
2013-1-10,54,44,37,40,37,34,94,77,53,30.20,30.08,6,1,15,0.00
2013-1-11,54,42,32,41,36,30,95,80,53,30.27,30.14,4,0,10,0.00
2013-1-12,37,33,31,35,32,30,96,95,92,30.26,30.17,0,0,1,0.00
2013-1-13,52,41,31,32,27,19,89,62,29,30.24,30.18,3,0,6,0.00
2013-1-14,53,37,27,28,24,18,86,63,26,30.42,30.23,2,0,6,0.00
2013-1-15,58,40,27,34,29,25,93,70,31,30.49,30.40,1,0,5,0.00
2013-1-16,60,40,28,37,32,27,95,75,35,30.44,30.26,1,0,2,0.00
2013-1-17,66,43,30,41,34,29,96,75,36,30.27,30.15,1,0,2,0.00
2013-1-18,68,45,33,43,36,32,95,75,35,30.24,30.13,1,0,3,0.01
2013-1-19,67,46,32,44,37,30,95,74,37,30.25,30.15,2,0,4,0.00
2013-1-20,68,45,32,41,35,30,96,73,28,30.24,30.13,1,0,2,0.00
2013-1-21,68,45,31,43,36,29,95,75,32,30.18,30.08,1,0,2,0.01
2013-1-22,65,47,33,47,39,32,96,77,38,30.11,30.00,1,0,3,0.00
2013-1-23,55,49,45,50,46,42,95,89,78,30.09,29.96,0,0,2,0.05
2013-1-24,58,53,49,53,50,48,97,92,80,30.19,30.06,0,0,1,0.01
2013-1-25,68,56,49,57,53,48,97,89,68,30.19,30.04,3,0,5,0.02
2013-1-26,61,50,42,50,44,39,97,81,46,30.10,30.01,6,1,10,0.00
2013-1-27,58,47,39,42,38,30,93,74,35,30.18,30.09,4,1,6,0.00
2013-1-28,60,48,38,44,40,36,95,78,51,30.31,30.17,5,1,8,0.00
2013-1-29,60,47,38,46,41,36,95,81,54,30.37,30.27,4,0,7,0.00
2013-1-30,71,50,38,46,41,36,96,75,36,30.35,30.25,2,0,3,0.00
2013-1-31,68,48,35,49,41,34,97,80,45,30.30,30.18,2,0,2,0.00